Tiempo atmosférico en la estación meteorológica de Porreres, Illes Balears (120 m.)



Fecha
DESCASC
Temp. máxima en grados centígrados (hora)
DESCASC
Temp. mínima en grados centígrados (hora)
DESCASC
Temp. media en grados centígrados
DESCASC
Racha de viento máxima en m/sg (hora)
DESCASC
Velocidad máxima media en intervalos de 10 minutos(hora)
DESCASC
Precipitaciones diarias en mm
DESCASC
Precipitaciones de 00:00 a 06:00 en mm
DESCASC
Precipitaciones de 06:00 a 12:00 en mm
DESCASC
Precipitaciones de 12:00 a 18:00 en mm
DESCASC
Precipitaciones de 18:00 a 24:00 en mm
DESCASC
16-06-2019 27.9 (17:20) 16.2 (06:20) 22.1 8.89 (09:40) 4.17 (13:30) 0 0 0 0 0
15-06-2019 29.6 (15:20) 18 (05:40) 23.8 7.5 (09:50) 4.72 (09:50) 0 0 0 0 0
14-06-2019 25.3 (19:10) 18.9 (04:00) 22.1 14.17 (10:40) 7.78 (16:30) 0 0 0 0 0
13-06-2019 25.9 (14:40) 14.1 (00:00) 20 10 (14:50) 4.44 (14:50) 0 0 0 0 0
12-06-2019 23.4 (16:00) 15.5 (00:00) 19.4 7.22 (01:50) 3.89 (17:40) 0 0 0 0 0
11-06-2019 24.7 (18:50) 14.2 (00:00) 19.5 9.44 (21:40) 4.44 (21:50) 0 0 0 0 0
10-06-2019 28.3 (14:40) 16.6 (00:00) 22.4 8.89 (09:20) 4.44 (11:20) 0 0 0 0 0
09-06-2019 30.5 (17:00) 16.9 (00:00) 23.7 6.67 (00:40) 4.44 (17:30) 0 0 0 0 0
08-06-2019 26.2 (14:40) 17 (00:00) 21.6 10.28 (16:30) 5 (23:50) 0 0 0 0 0
07-06-2019 29.4 (16:30) 15.7 (00:00) 22.5 9.17 (10:50) 5.28 (12:10) 0 0 0 0 0
06-06-2019 26 (15:20) 15.5 (00:00) 20.8 7.5 (15:00) 4.44 (18:20) 0 0 0 0 0
05-06-2019 27.5 (15:50) 15.8 (00:00) 21.7 13.33 (17:50) 7.5 (17:40) 0 0 0 0 0
04-06-2019 28.7 (15:00) 13.6 (00:00) 21.2 7.5 (17:30) 4.72 (17:20) 0 0 0 0 0
03-06-2019 29 (12:50) 12.2 (00:00) 20.6 8.61 (14:10) 4.44 (14:10) 0 0 0 0 0
02-06-2019 28.5 (14:00) 11.4 (00:00) 19.9 6.67 (17:00) 3.61 (17:20) 0 0 0 0 0
01-06-2019 27.5 (14:40) 12.3 (00:00) 19.9 6.67 (17:30) 3.61 (14:40) 0 0 0 0 0
31-05-2019 26.3 (13:10) 11 (00:00) 18.6 6.39 (15:40) 3.33 (15:40) 0 0 0 0 0
30-05-2019 25.2 (17:40) 11.1 (00:00) 18.2 8.33 (19:40) 4.44 (19:40) 0 0 0 0 0
29-05-2019 22.1 (15:30) 13.7 (00:00) 17.9 6.94 (15:40) 3.61 (18:20) 0.4 0.1 0.3 0 0
28-05-2019 25.5 (14:20) 15.3 (00:00) 20.4 8.06 (18:30) 4.17 (14:30) 0 0 0 0 0
27-05-2019 24.7 (12:00) 14 (00:00) 19.4 8.89 (16:00) 5.56 (15:00) 0 0 0 0 0
26-05-2019 24.2 (11:50) 13.9 (00:00) 19.1 11.11 (11:20) 4.17 (10:00) 0 0 0 0 0
25-05-2019 20.5 (13:40) 14.6 (00:00) 17.6 9.17 (17:20) 4.72 (14:20) 0 0 0 0 0
24-05-2019 23.3 (13:00) 13.9 (00:00) 18.6 4.72 (06:40) 2.5 (16:10) 3.1 0 0 2.7 0.4
23-05-2019 27.5 (15:00) 10.3 (00:00) 18.9 7.5 (15:10) 3.61 (14:40) 0 0 0 0 0
22-05-2019 26.4 (14:20) 11.7 (00:00) 19 6.94 (14:10) 3.33 (14:10) 0 0 0 0 0
21-05-2019 25.3 (13:20) 10.5 (03:00) 17.9 6.94 (14:00) 3.89 (14:00) 0 0 0 0 0

Gráficas

Temp. máximas Temp. mínimas Temp. medias Precipitaciones Rachas de viento máximas Velocidades máximas media en intervalos de 10 minutos

Datos horarios

Fecha y hora oficial Temperatura (ºC) Velocidad del viento (km/h) Dirección del viento Racha (km/h) Dirección de racha Precipitación (mm) Presión (hPa) Tendencia (hPa) Humedad (%)
2019-06-19 23:00:00 20 0 Calma 7 Sur 0 -- -- 76
2019-06-19 22:00:00 22 2 Oeste 13 Sudoeste 0 -- -- 74
2019-06-19 21:00:00 23.4 6 Sudoeste 15 Sudoeste 0 -- -- 66
2019-06-19 20:00:00 26.2 8 Sudoeste 19 Sudoeste 0 -- -- 58
2019-06-19 19:00:00 27.5 9 Sur 22 Sudoeste 0 -- -- 50
2019-06-19 18:00:00 28.8 9 Sudoeste 21 Sudoeste 0 -- -- 46
2019-06-19 17:00:00 28 10 Sur 24 Sur 0 -- -- 49
2019-06-19 16:00:00 28 12 Sur 26 Sudoeste 0 -- -- 48
2019-06-19 15:00:00 28.3 9 Sudoeste 21 Sudoeste 0 -- -- 50
2019-06-19 14:00:00 26.7 10 Sur 23 Sudoeste 0 -- -- 53
2019-06-19 13:00:00 26.6 12 Sur 27 Sudoeste 0 -- -- 52
2019-06-19 12:00:00 26.8 13 Sudoeste 24 Sudoeste 0 -- -- 45
2019-06-19 11:00:00 27.1 8 Sur 18 Sudeste 0 -- -- 43
2019-06-19 10:00:00 24.8 7 Sudeste 15 Sudeste 0 -- -- 53
2019-06-19 09:00:00 22.5 7 Sur 13 Sudeste 0 -- -- 72
2019-06-19 08:00:00 18.3 0 Calma 0 Calma 0 -- -- 81
2019-06-19 07:00:00 15 0 Calma 3 Norte 0 -- -- 71
2019-06-19 06:00:00 14.2 0 Calma 3 Norte 0 -- -- 68
2019-06-19 05:00:00 14.7 0 Calma 3 Oeste 0 -- -- 66
2019-06-19 04:00:00 15.5 3 Norte 5 Norte 0 -- -- 66
2019-06-19 03:00:00 16.2 3 Noroeste 7 Norte 0 -- -- 68
2019-06-19 02:00:00 16.3 2 Norte 4 Norte 0 -- -- 64
2019-06-19 01:00:00 16.9 0 Calma 4 Norte 0 -- -- 62
2019-06-19 00:00:00 18.2 0 Calma 3 Oeste 0 -- -- 59
2019-06-18 23:00:00 19.5 0 Calma 4 Oeste 0 -- -- 54
2019-06-18 22:00:00 22.1 0 Calma 9 Sudoeste 0 -- -- 49
2019-06-18 21:00:00 24 5 Sudoeste 17 Sur 0 -- -- 45
2019-06-18 20:00:00 26 9 Sur 19 Sudeste 0 -- -- 34
2019-06-18 19:00:00 27.5 8 Sur 23 Sudeste 0 -- -- 33
2019-06-18 18:00:00 28.2 12 Sur 22 Sudeste 0 -- -- 33
2019-06-18 17:00:00 28.7 11 Sur 27 Sudeste 0 -- -- 31
2019-06-18 16:00:00 29.7 9 Sur 23 Sudeste 0 -- -- 31
2019-06-18 15:00:00 29.7 10 Sudeste 27 Sur 0 -- -- 31
2019-06-18 14:00:00 29.4 12 Sur 21 Sudeste 0 -- -- 31
2019-06-18 13:00:00 29.4 8 Sur 19 Sudeste 0 -- -- 31
2019-06-18 12:00:00 28.9 8 Sur 18 Sur 0 -- -- 34
2019-06-18 11:00:00 27.1 7 Sur 17 Sudoeste 0 -- -- 38
2019-06-18 10:00:00 25.5 7 Sudeste 13 Sudeste 0 -- -- 40
2019-06-18 09:00:00 23.7 3 Sudeste 8 Sudeste 0 -- -- 50
2019-06-18 08:00:00 17.4 0 Calma 3 Norte 0 -- -- 67
2019-06-18 07:00:00 14.4 0 Calma 4 Noroeste 0 -- -- 68
2019-06-18 06:00:00 15 0 Calma 9 Noroeste 0 -- -- 65
2019-06-18 05:00:00 15 3 Noroeste 7 Noroeste 0 -- -- 65
2019-06-18 04:00:00 15.2 3 Noroeste 6 Noroeste 0 -- -- 63
2019-06-18 03:00:00 16.1 0 Calma 5 Noroeste 0 -- -- 62
2019-06-18 02:00:00 16.2 0 Calma 7 Norte 0 -- -- 61
2019-06-18 01:00:00 17.4 0 Calma 5 Noroeste 0 -- -- 59
2019-06-18 00:00:00 18.2 0 Calma 4 Norte 0 -- -- 55
2019-06-17 23:00:00 19.7 2 Noroeste 6 Norte 0 -- -- 50
2019-06-17 22:00:00 22 3 Oeste 10 Sudoeste 0 -- -- 45
2019-06-17 21:00:00 23.5 7 Sudoeste 20 Sudoeste 0 -- -- 41
2019-06-17 20:00:00 25.7 9 Sur 18 Sur 0 -- -- 36
2019-06-17 19:00:00 27.5 9 Sur 19 Sudoeste 0 -- -- 33
2019-06-17 18:00:00 27.8 9 Sudoeste 21 Sur 0 -- -- 32
2019-06-17 17:00:00 28.2 9 Sudoeste 24 Sudoeste 0 -- -- 32
2019-06-17 16:00:00 28.6 10 Sur 25 Sudoeste 0 -- -- 33
2019-06-17 15:00:00 28.7 9 Sur 24 Sudoeste 0 -- -- 33
2019-06-17 14:00:00 28.7 10 Sudoeste 29 Sudoeste 0 -- -- 33
2019-06-17 13:00:00 28.1 11 Sur 23 Sudoeste 0 -- -- 32
2019-06-17 12:00:00 29.2 3 Este 16 Sudeste 0 -- -- 28
2019-06-17 11:00:00 28 0 Calma 12 Norte 0 -- -- 34
2019-06-17 10:00:00 26 0 Calma 7 Norte 0 -- -- 41
2019-06-17 09:00:00 22.3 3 Norte 8 Norte 0 -- -- 62
2019-06-17 08:00:00 17.2 3 Noroeste 7 Noroeste 0 -- -- 79
2019-06-17 07:00:00 15.1 4 Noroeste 8 Noroeste 0 -- -- 80
2019-06-17 06:00:00 14.4 0 Calma 6 Norte 0 -- -- 80
2019-06-17 05:00:00 15.6 3 Noroeste 6 Noroeste 0 -- -- 82
2019-06-17 04:00:00 17.2 3 Noroeste 5 Noroeste 0 -- -- 82
2019-06-17 03:00:00 17.6 3 Noroeste 6 Noroeste 0 -- -- 80
2019-06-17 02:00:00 18.6 2 Noroeste 5 Oeste 0 -- -- 78
2019-06-17 01:00:00 19.2 0 Calma 5 Oeste 0 -- -- 70
2019-06-17 00:00:00 20.1 0 Calma 7 Norte 0 -- -- 66
2019-06-16 23:00:00 20.2 0 Calma 5 Oeste 0 -- -- 59
2019-06-16 22:00:00 21.5 0 Calma 6 Este 0 -- -- 58
2019-06-16 21:00:00 22.4 5 Este 11 Sudeste 0 -- -- 50
2019-06-16 20:00:00 23.4 6 Sudeste 16 Este 0 -- -- 47
2019-06-16 19:00:00 24.3 13 Sudeste 19 Sudeste 0 -- -- 43
2019-06-16 18:00:00 27.2 8 Norte 17 Norte 0 -- -- 38
2019-06-16 17:00:00 27.4 9 Norte 20 Norte 0 -- -- 37
2019-06-16 16:00:00 26.8 6 Este 17 Nordeste 0 -- -- 40
2019-06-16 15:00:00 26.1 7 Nordeste 23 Norte 0 -- -- 41
2019-06-16 14:00:00 26.5 13 Norte 25 Norte 0 -- -- 43
2019-06-16 13:00:00 25.2 9 Nordeste 27 Norte 0 -- -- 45
2019-06-16 12:00:00 24.8 11 Nordeste 29 Norte 0 -- -- 50
2019-06-16 11:00:00 23.5 6 Nordeste 30 Norte 0 -- -- 55
2019-06-16 10:00:00 22.4 8 Nordeste 32 Norte 0 -- -- 60
2019-06-16 09:00:00 20.8 9 Nordeste 25 Norte 0 -- -- 68
2019-06-16 08:00:00 17.5 7 Norte 16 Norte 0 -- -- 84
2019-06-16 07:00:00 16.3 2 Noroeste 8 Norte 0 -- -- 87
2019-06-16 06:00:00 16.4 5 Norte 11 Norte 0 -- -- 87
2019-06-16 05:00:00 16.9 7 Norte 12 Norte 0 -- -- 86
2019-06-16 04:00:00 17.3 6 Norte 11 Norte 0 -- -- 83
2019-06-16 03:00:00 17.6 5 Norte 13 Norte 0 -- -- 82
2019-06-16 02:00:00 18.2 9 Norte 18 Norte 0 -- -- 81
2019-06-16 01:00:00 19.3 9 Norte 19 Norte 0 -- -- 82
2019-06-16 00:00:00 19.2 10 Norte 22 Norte 0 -- -- 82
2019-06-15 23:00:00 20 9 Norte 19 Norte 0 -- -- 79
2019-06-15 22:00:00 21.3 8 Norte 16 Norte 0 -- -- 69
2019-06-15 21:00:00 22.9 4 Este 16 Este 0 -- -- 59
2019-06-15 20:00:00 24.1 9 Este 21 Sudeste 0 -- -- 55
2019-06-15 19:00:00 26.4 10 Este 19 Sudeste 0 -- -- 47
2019-06-15 18:00:00 27.3 10 Este 23 Este 0 -- -- 45
2019-06-15 17:00:00 28.4 10 Este 26 Este 0 -- -- 43
2019-06-15 16:00:00 28.4 8 Este 21 Sur 0 -- -- 43
2019-06-15 15:00:00 29.3 10 Sur 23 Sudeste 0 -- -- 43
2019-06-15 14:00:00 29.1 10 Sur 26 Sudeste 0 -- -- 43
2019-06-15 13:00:00 28.2 5 Oeste 17 Oeste 0 -- -- 43
2019-06-15 12:00:00 26.1 10 Sudoeste 22 Oeste 0 -- -- 47
2019-06-15 11:00:00 24.1 10 Oeste 25 Sudoeste 0 -- -- 59
2019-06-15 10:00:00 22.5 13 Sudoeste 27 Sudoeste 0 -- -- 68
2019-06-15 09:00:00 20.2 14 Sudoeste 25 Oeste 0 -- -- 75
2019-06-15 08:00:00 19.3 11 Sudoeste 20 Sudoeste 0 -- -- 82
2019-06-15 07:00:00 18.2 7 Sudoeste 21 Sudoeste 0 -- -- 85
2019-06-15 06:00:00 18.1 10 Sudoeste 21 Sur 0 -- -- 85
2019-06-15 05:00:00 18.1 5 Sudoeste 16 Sur 0 -- -- 87
2019-06-15 04:00:00 18.2 3 Sur 14 Sudoeste 0 -- -- 86
2019-06-15 03:00:00 18.2 3 Sur 9 Sur 0 -- -- 84
2019-06-15 02:00:00 18.7 4 Sur 9 Sudoeste 0 -- -- 83
2019-06-15 01:00:00 19 0 Calma 11 Oeste 0 -- -- 82
2019-06-15 00:00:00 19.2 4 Oeste 11 Sudoeste 0 -- -- 82
2019-06-14 23:00:00 20 5 Sudoeste 18 Sudoeste 0 -- -- 82
2019-06-14 22:00:00 20.5 11 Sudoeste 22 Sudoeste 0 -- -- 78
2019-06-14 21:00:00 21.7 11 Sudoeste 29 Sudoeste 0 -- -- 72
2019-06-14 20:00:00 23.8 14 Sudoeste 28 Oeste 0 -- -- 55
2019-06-14 19:00:00 24.9 16 Oeste 33 Oeste 0 -- -- 46
2019-06-14 18:00:00 24.8 18 Oeste 36 Oeste 0 -- -- 43
2019-06-14 17:00:00 24.4 23 Oeste 46 Oeste 0 -- -- 45
2019-06-14 16:00:00 25.1 23 Oeste 42 Oeste 0 -- -- 46
2019-06-14 15:00:00 24.8 21 Oeste 40 Sudoeste 0 -- -- 51
2019-06-14 14:00:00 24 19 Oeste 41 Sudoeste 0 -- -- 58
2019-06-14 13:00:00 23.4 24 Oeste 46 Oeste 0 -- -- 62
2019-06-14 12:00:00 21.5 26 Oeste 43 Oeste 0 -- -- 71
2019-06-14 11:00:00 21.4 19 Oeste 51 Oeste 0 -- -- 74
2019-06-14 10:00:00 21.2 21 Oeste 46 Oeste 0 -- -- 77
2019-06-14 09:00:00 22.7 12 Sudoeste 27 Sudoeste 0 -- -- 71
2019-06-14 08:00:00 20.7 8 Noroeste 17 Noroeste 0 -- -- 82
2019-06-14 07:00:00 19.5 10 Noroeste 16 Noroeste 0 -- -- 87
2019-06-14 06:00:00 19.1 6 Noroeste 14 Norte 0 -- -- 88
2019-06-14 05:00:00 19 8 Norte 21 Norte 0 -- -- 88
2019-06-14 04:00:00 19 12 Norte 20 Norte 0 -- -- 88
2019-06-14 03:00:00 19.2 12 Norte 20 Norte 0 -- -- 87
2019-06-14 02:00:00 19.3 8 Nordeste 25 Norte 0 -- -- 84
2019-06-14 01:00:00 19.5 14 Norte 23 Norte 0 -- -- 84
2019-06-14 00:00:00 19.9 10 Norte 18 Norte 0 -- -- 79
2019-06-13 23:00:00 20.6 5 Nordeste 20 Nordeste 0 -- -- 78
2019-06-13 22:00:00 20.7 4 Nordeste 20 Este 0 -- -- 78
2019-06-13 21:00:00 20.8 6 Nordeste 23 Nordeste 0 -- -- 75
2019-06-13 20:00:00 21.4 9 Este 27 Este 0 -- -- 69
2019-06-13 19:00:00 22.5 11 Este 28 Este 0 -- -- 62
2019-06-13 18:00:00 23.7 11 Este 28 Sudeste 0 -- -- 56
2019-06-13 17:00:00 24.2 10 Este 30 Este 0 -- -- 49
2019-06-13 16:00:00 24.5 13 Este 33 Sudeste 0 -- -- 41
2019-06-13 15:00:00 24.5 16 Este 36 Este 0 -- -- 42
2019-06-13 14:00:00 24.7 12 Este 31 Este 0 -- -- 40
2019-06-13 13:00:00 24.2 9 Este 33 Este 0 -- -- 41
2019-06-13 12:00:00 22.8 9 Este 24 Este 0 -- -- 47
2019-06-13 11:00:00 22.3 7 Este 26 Este 0 -- -- 50
2019-06-13 10:00:00 20.6 5 Nordeste 22 Nordeste 0 -- -- 64
2019-06-13 09:00:00 18.6 5 Nordeste 23 Norte 0 -- -- 74
2019-06-13 08:00:00 16.7 14 Norte 22 Norte 0 -- -- 86
2019-06-13 07:00:00 15.1 6 Norte 9 Norte 0 -- -- 88
2019-06-13 06:00:00 14.9 7 Norte 12 Noroeste 0 -- -- 87
2019-06-13 05:00:00 14.3 6 Norte 9 Norte 0 -- -- 86
2019-06-13 04:00:00 14.7 4 Norte 9 Norte 0 -- -- 84
2019-06-13 03:00:00 15.2 4 Norte 6 Norte 0 -- -- 82
2019-06-13 02:00:00 15.4 2 Norte 6 Noroeste 0 -- -- 81
2019-06-13 01:00:00 16.1 3 Norte 8 Norte 0 -- -- 79
2019-06-13 00:00:00 16.5 4 Norte 8 Norte 0 -- -- 77
2019-06-12 23:00:00 16.9 0 Calma 6 Este 0 -- -- 74
2019-06-12 22:00:00 17.5 5 Este 15 Este 0 -- -- 71
2019-06-12 21:00:00 18.4 8 Sudeste 22 Este 0 -- -- 64
2019-06-12 20:00:00 19.8 12 Sudeste 22 Este 0 -- -- 57
2019-06-12 19:00:00 20.9 12 Sudeste 22 Este 0 -- -- 54
2019-06-12 18:00:00 21.8 9 Sudeste 22 Sudeste 0 -- -- 54
2019-06-12 17:00:00 23.2 4 Sudeste 24 Sudeste 0 -- -- 49
2019-06-12 16:00:00 23 10 Sudeste 26 Sudeste 0 -- -- 49
2019-06-12 15:00:00 21.8 5 Este 15 Este 0 -- -- 53
2019-06-12 14:00:00 21.2 6 Este 16 Sudeste 0 -- -- 55
2019-06-12 13:00:00 21 3 Norte 13 Este 0 -- -- 56
2019-06-12 12:00:00 21.3 6 Este 15 Este 0 -- -- 55
2019-06-12 11:00:00 19.6 4 Este 12 Este 0 -- -- 64
2019-06-12 10:00:00 18.5 0 Calma 12 Norte 0 -- -- 68
2019-06-12 09:00:00 17.5 2 Nordeste 12 Este 0 -- -- 72
2019-06-12 08:00:00 17 2 Este 12 Nordeste 0 -- -- 74
2019-06-12 07:00:00 16.2 3 Norte 8 Nordeste 0 -- -- 75
2019-06-12 06:00:00 16.2 2 Este 10 Norte 0 -- -- 76
2019-06-12 05:00:00 16 6 Norte 12 Norte 0 -- -- 77
2019-06-12 04:00:00 15.7 0 Calma 17 Norte 0 -- -- 77
2019-06-12 03:00:00 15.6 7 Nordeste 26 Nordeste 0 -- -- 80
2019-06-12 02:00:00 15.8 11 Norte 26 Norte 0 -- -- 82
2019-06-12 01:00:00 15.7 8 Norte 23 Norte 0 -- -- 85
2019-06-12 00:00:00 15.8 8 Nordeste 31 Norte 0 -- -- 86
2019-06-11 23:00:00 16.9 15 Norte 31 Norte 0 -- -- 82
2019-06-11 22:00:00 18.1 13 Nordeste 34 Norte 0 -- -- 79
2019-06-11 21:00:00 20.5 9 Nordeste 22 Norte 0 -- -- 69
2019-06-11 20:00:00 22.6 8 Norte 22 Nordeste 0 -- -- 56
2019-06-11 19:00:00 24.1 4 Sur 13 Sudeste 0 -- -- 51
2019-06-11 18:00:00 23.6 6 Sur 20 Sudeste 0 -- -- 51
2019-06-11 17:00:00 24.1 4 Sur 18 Sudeste 0 -- -- 53
2019-06-11 16:00:00 23.8 9 Sur 26 Sudeste 0 -- -- 55
2019-06-11 15:00:00 22.5 12 Sur 24 Sur 0 -- -- 57
2019-06-11 14:00:00 22.5 9 Sur 24 Sudeste 0 -- -- 59
2019-06-11 13:00:00 21.5 8 Sudeste -- -- -- -- -- 61
2019-06-11 12:00:00 21.4 12 Sudeste 19 Sudeste 0 -- -- 61
2019-06-11 11:00:00 21.1 9 Sudeste 19 Sudeste 0 -- -- 64
2019-06-11 10:00:00 20.7 10 Sudeste 16 Este 0 -- -- 64
2019-06-11 09:00:00 19.5 6 Este 14 Este 0 -- -- 74
2019-06-11 08:00:00 17.3 0 Calma 5 Este 0 -- -- 86
2019-06-11 07:00:00 15.2 0 Calma 4 Norte 0 -- -- 86
2019-06-11 06:00:00 15.2 0 Calma 2 Sudoeste 0 -- -- 85
2019-06-11 05:00:00 15.6 0 Calma 4 Norte 0 -- -- 83
2019-06-11 04:00:00 16.5 0 Calma 5 Noroeste 0 -- -- 81
2019-06-11 03:00:00 16.9 0 Calma 4 Norte 0 -- -- 79
2019-06-11 02:00:00 18.2 0 Calma 9 Sudeste 0 -- -- 79
2019-06-11 01:00:00 18.8 2 Sudeste 5 Sudeste 0 -- -- 74
2019-06-11 00:00:00 19.4 0 Calma 8 Sudeste 0 -- -- 64
2019-06-10 23:00:00 20.3 6 Este 14 Este 0 -- -- 57
2019-06-10 22:00:00 20.9 6 Este 13 Este 0 -- -- 55
2019-06-10 21:00:00 21.7 8 Oeste 21 Oeste 0 -- -- 58
2019-06-10 20:00:00 23.1 12 Oeste 19 Sudoeste 0 -- -- 59
2019-06-10 19:00:00 24 9 Sudoeste 17 Sudoeste 0 -- -- 59
2019-06-10 18:00:00 24.4 7 Sudoeste 20 Sudoeste 0 -- -- 57
2019-06-10 17:00:00 25.6 14 Sudoeste 29 Sudoeste 0 -- -- 54
2019-06-10 16:00:00 26 4 Sur 19 Sudeste 0 -- -- 50
2019-06-10 15:00:00 27 5 Norte 20 Norte 0 -- -- 42
2019-06-10 14:00:00 26.9 6 Nordeste 21 Norte 0 -- -- 44
2019-06-10 13:00:00 25.8 5 Nordeste 21 Norte 0 -- -- 48
2019-06-10 12:00:00 25.1 6 Nordeste 28 Norte 0 -- -- 53
2019-06-10 11:00:00 22.8 10 Nordeste 26 Norte 0 -- -- 60
2019-06-10 10:00:00 23.4 8 Nordeste 32 Norte 0 -- -- 59
2019-06-10 09:00:00 21.6 12 Nordeste 31 Norte 0 -- -- 64
2019-06-10 08:00:00 19.3 11 Norte 22 Norte 0 -- -- 75
2019-06-10 07:00:00 18.2 10 Norte 23 Norte 0 -- -- 81
2019-06-10 06:00:00 17.5 14 Norte 20 Norte 0 -- -- 88
2019-06-10 05:00:00 16.7 4 Norte 6 Noroeste 0 -- -- 87
2019-06-10 04:00:00 17 3 Oeste 6 Norte 0 -- -- 86
2019-06-10 03:00:00 17.3 2 Oeste 8 Noroeste 0 -- -- 86
2019-06-10 02:00:00 18.6 4 Noroeste 6 Noroeste 0 -- -- 86
2019-06-10 01:00:00 18.8 0 Calma 11 Sudeste 0 -- -- 86
2019-06-10 00:00:00 19.4 6 Sudeste 10 Sudeste 0 -- -- 83
2019-06-09 23:00:00 20.5 4 Sur 10 Sudeste 0 -- -- 77
2019-06-09 22:00:00 21.3 5 Sur 11 Sur 0 -- -- 73
2019-06-09 21:00:00 21.9 6 Sur 16 Sur 0 -- -- 68
2019-06-09 20:00:00 23.6 6 Sur 22 Sudeste 0 -- -- 61
2019-06-09 19:00:00 24.5 10 Sur 21 Sudeste 0 -- -- 54
2019-06-09 18:00:00 27.6 12 Sudeste 24 Sudeste 0 -- -- 46
2019-06-09 17:00:00 30 11 Sudeste 18 Este 0 -- -- 45
2019-06-09 16:00:00 29.6 5 Sur 12 Sur 0 -- -- 44
2019-06-09 15:00:00 28 3 Noroeste 16 Noroeste 0 -- -- 46
2019-06-09 14:00:00 26.7 8 Oeste 24 Oeste 0 -- -- 49
2019-06-09 13:00:00 28.4 4 Norte 12 Sudeste 0 -- -- 50
2019-06-09 12:00:00 25.7 3 Este 11 Sudeste 0 -- -- 57
2019-06-09 11:00:00 24.2 2 Norte 12 Sudeste 0 -- -- 63
2019-06-09 10:00:00 23.1 2 Norte 11 Noroeste 0 -- -- 68
2019-06-09 09:00:00 20.4 7 Noroeste 14 Norte 0 -- -- 75
2019-06-09 08:00:00 18.2 5 Norte 14 Noroeste 0 -- -- 82
2019-06-09 07:00:00 17.1 9 Norte 15 Norte 0 -- -- 82
2019-06-09 06:00:00 17.1 9 Norte 13 Noroeste 0 -- -- 81
2019-06-09 05:00:00 17.3 9 Norte 14 Norte 0 -- -- 79
2019-06-09 04:00:00 17.5 10 Norte 19 Norte 0 -- -- 77
2019-06-09 03:00:00 17.5 10 Norte 19 Norte 0 -- -- 75
2019-06-09 02:00:00 17.7 13 Norte 21 Norte 0 -- -- 75
2019-06-09 01:00:00 17.7 14 Norte 24 Norte 0 -- -- 74
2019-06-09 00:00:00 17.9 15 Norte 27 Norte 0 -- -- 72
2019-06-08 23:00:00 18.2 13 Norte 23 Norte 0 -- -- 69
2019-06-08 22:00:00 18.5 10 Norte 21 Norte 0 -- -- 63
2019-06-08 21:00:00 19.9 13 Norte 22 Norte 0 -- -- 54
2019-06-08 20:00:00 22.3 10 Norte 26 Norte 0 -- -- 45
2019-06-08 19:00:00 23.7 13 Norte 26 Norte 0 -- -- 42
2019-06-08 18:00:00 24.6 9 Nordeste 28 Norte 0 -- -- 39
2019-06-08 17:00:00 25.3 10 Nordeste 37 Norte 0 -- -- 39
2019-06-08 16:00:00 25 8 Nordeste 35 Norte 0 -- -- 37
2019-06-08 15:00:00 25.5 10 Nordeste 30 Norte 0 -- -- 39
2019-06-08 14:00:00 24.2 7 Nordeste 26 Sudeste 0 -- -- 37
2019-06-08 13:00:00 24.2 8 Este 25 Nordeste 0 -- -- 39
2019-06-08 12:00:00 24.2 4 Nordeste 26 Nordeste 0 -- -- 41
2019-06-08 11:00:00 22.3 8 Nordeste 28 Nordeste 0 -- -- 46
2019-06-08 10:00:00 20.4 6 Nordeste 26 Este 0 -- -- 54
2019-06-08 09:00:00 19.3 4 Nordeste 21 Norte 0 -- -- 62
2019-06-08 08:00:00 18.4 5 Nordeste 22 Norte 0 -- -- 68
2019-06-08 07:00:00 18 5 Nordeste 21 Norte 0 -- -- 68
2019-06-08 06:00:00 17.6 6 Nordeste 23 Norte 0 -- -- 72
2019-06-08 05:00:00 17.6 10 Norte 26 Norte 0 -- -- 84
2019-06-08 04:00:00 17.7 11 Norte 24 Norte 0 -- -- 84
2019-06-08 03:00:00 18.6 6 Nordeste 18 Norte 0 -- -- 83
2019-06-08 02:00:00 17.9 10 Norte 16 Norte 0 -- -- 74
2019-06-08 01:00:00 18.4 4 Norte 7 Noroeste 0 -- -- 71
2019-06-08 00:00:00 18.9 3 Norte 7 Norte 0 -- -- 70
2019-06-07 23:00:00 20.4 3 Norte 8 Sudeste 0 -- -- 69
2019-06-07 22:00:00 21.1 5 Sudeste 12 Sudeste 0 -- -- 63
2019-06-07 21:00:00 23 6 Sudeste 19 Este 0 -- -- 53
2019-06-07 20:00:00 25.7 10 Este 18 Este 0 -- -- 41
2019-06-07 19:00:00 28.8 6 Noroeste 19 Noroeste 0 -- -- 29
2019-06-07 18:00:00 28.4 11 Oeste 24 Oeste 0 -- -- 31
2019-06-07 17:00:00 29 13 Oeste 27 Oeste 0 -- -- 30
2019-06-07 16:00:00 28.2 14 Oeste 30 Sudoeste 0 -- -- 30
2019-06-07 15:00:00 28.3 17 Oeste 29 Sudoeste 0 -- -- 31
2019-06-07 14:00:00 26.9 18 Oeste 32 Oeste 0 -- -- 37
2019-06-07 13:00:00 26.1 14 Oeste 33 Oeste 0 -- -- 37
2019-06-07 12:00:00 25.1 17 Oeste 32 Oeste 0 -- -- 39
2019-06-07 11:00:00 24.6 15 Oeste 33 Oeste 0 -- -- 41
2019-06-07 10:00:00 23.3 12 Oeste 23 Sudoeste 0 -- -- 51
2019-06-07 09:00:00 21.3 3 Sur 10 Sudoeste 0 -- -- 68
2019-06-07 08:00:00 18.1 3 Sudeste 6 Noroeste 0 -- -- 86
2019-06-07 07:00:00 16.8 3 Noroeste 11 Noroeste 0 -- -- 89
2019-06-07 06:00:00 16 9 Noroeste 13 Noroeste 0 -- -- 88
2019-06-07 05:00:00 16.4 3 Norte 10 Norte 0 -- -- 86
2019-06-07 04:00:00 17 5 Noroeste 11 Noroeste 0 -- -- 86
2019-06-07 03:00:00 17 0 Calma 6 Noroeste 0 -- -- 84
2019-06-07 02:00:00 17 0 Calma 6 Noroeste 0 -- -- 82
2019-06-07 01:00:00 17.7 2 Noroeste 5 Norte 0 -- -- 82
2019-06-07 00:00:00 18.4 0 Calma 10 Sudeste 0 -- -- 82
2019-06-06 23:00:00 18.9 6 Sudeste 14 Sudeste 0 -- -- 81
2019-06-06 22:00:00 19.3 9 Sudeste 15 Sudeste 0 -- -- 78
2019-06-06 21:00:00 20.1 10 Sudeste 19 Sudeste 0 -- -- 69
2019-06-06 20:00:00 21.2 11 Sudeste 22 Sudeste 0 -- -- 63
2019-06-06 19:00:00 22.2 13 Sudeste 24 Sudeste 0 -- -- 57
2019-06-06 18:00:00 23.5 15 Sudeste 25 Sudeste 0 -- -- 50
2019-06-06 17:00:00 24.7 15 Sudeste 24 Sudeste 0 -- -- 45
2019-06-06 16:00:00 24.9 15 Sudeste 25 Sudeste 0 -- -- 40
2019-06-06 15:00:00 25.5 14 Sudeste 27 Sudeste 0 -- -- 42
2019-06-06 14:00:00 24.1 14 Sudeste 27 Sudeste 0 -- -- 44
2019-06-06 13:00:00 24.6 11 Sudeste 24 Sudeste 0 -- -- 47
2019-06-06 12:00:00 23.8 8 Sudeste 19 Sudeste 0 -- -- 49
2019-06-06 11:00:00 22.4 9 Sudeste 21 Sudeste 0 -- -- 53
2019-06-06 10:00:00 21.2 7 Sudeste 17 Sudeste 0 -- -- 58
2019-06-06 09:00:00 19.5 8 Este 16 Este 0 -- -- 68
2019-06-06 08:00:00 17 4 Este 11 Este 0 -- -- 79
2019-06-06 07:00:00 15.9 5 Norte 7 Norte 0 -- -- 79
2019-06-06 06:00:00 16.3 0 Calma 8 Norte 0 -- -- 77
2019-06-06 05:00:00 17 4 Norte 8 Norte 0 -- -- 68
2019-06-06 04:00:00 15.6 4 Norte 12 Norte 0 -- -- 58
2019-06-06 03:00:00 16.5 3 Norte 6 Noroeste 0 -- -- 58
2019-06-06 02:00:00 17.3 0 Calma 7 Norte 0 -- -- 58
2019-06-06 01:00:00 16.7 0 Calma 4 Noroeste 0 -- -- 61
2019-06-06 00:00:00 17.2 0 Calma 5 Norte 0 -- -- 59
2019-06-05 23:00:00 18.9 0 Calma 7 Noroeste 0 -- -- 56
2019-06-05 22:00:00 20.3 4 Noroeste 10 Sudoeste 0 -- -- 49
2019-06-05 21:00:00 22 6 Oeste 22 Sudoeste 0 -- -- 41
2019-06-05 20:00:00 23.7 12 Oeste 30 Sudoeste 0 -- -- 42
2019-06-05 19:00:00 23.4 17 Oeste 44 Oeste 0 -- -- 37
2019-06-05 18:00:00 25.1 24 Oeste 48 Oeste 0 -- -- 31
2019-06-05 17:00:00 26.5 22 Oeste 47 Oeste 0 -- -- 32
2019-06-05 16:00:00 26.9 26 Oeste 46 Oeste 0 -- -- 32
2019-06-05 15:00:00 26.6 20 Oeste 35 Oeste 0 -- -- 47
2019-06-05 14:00:00 25.4 16 Oeste 38 Oeste 0 -- -- 51
2019-06-05 13:00:00 24.7 15 Oeste 34 Sudoeste 0 -- -- 54
2019-06-05 12:00:00 23.3 13 Sudoeste 27 Oeste 0 -- -- 61
2019-06-05 11:00:00 22.9 12 Sur 30 Sudoeste 0 -- -- 59
2019-06-05 10:00:00 22.3 10 Sur 18 Sudoeste 0 -- -- 65
2019-06-05 09:00:00 20.2 6 Sudoeste 17 Sur 0 -- -- 80
2019-06-05 08:00:00 18.5 0 Calma 9 Sur 0 -- -- 88
2019-06-05 07:00:00 16.5 0 Calma 4 Norte 0 -- -- 87
2019-06-05 06:00:00 16.7 0 Calma 5 Noroeste 0 -- -- 88
2019-06-05 05:00:00 17.5 3 Sudoeste 10 Sudoeste 0 -- -- 88
2019-06-05 04:00:00 18.8 0 Calma 0 Calma 0 -- -- 86
2019-06-05 03:00:00 15.9 0 Calma 0 Calma 0 -- -- 81
2019-06-05 02:00:00 16.5 0 Calma 0 Calma 0 -- -- 80
2019-06-05 01:00:00 17.5 0 Calma 4 Norte 0 -- -- 79
2019-06-05 00:00:00 19.2 2 Sur 5 Sur 0 -- -- 74
2019-06-04 23:00:00 19.3 0 Calma 9 Sudeste 0 -- -- 67
2019-06-04 22:00:00 20.7 5 Sudeste 10 Sur 0 -- -- 60
2019-06-04 21:00:00 22.6 6 Sur 15 Sudeste 0 -- -- 48
2019-06-04 20:00:00 24.7 9 Sudeste 20 Sudeste 0 -- -- 41
2019-06-04 19:00:00 25.9 11 Sudeste 23 Sudeste 0 -- -- 37
2019-06-04 18:00:00 27.1 10 Sudeste 27 Sudeste 0 -- -- 36
2019-06-04 17:00:00 27.9 13 Sudeste 24 Sudeste 0 -- -- 33
2019-06-04 16:00:00 28.1 12 Sur 27 Sudeste 0 -- -- 33
2019-06-04 15:00:00 28.6 13 Sudeste 26 Sudeste 0 -- -- 35
2019-06-04 14:00:00 28 10 Sur 23 Sudeste 0 -- -- 35
2019-06-04 13:00:00 27.2 12 Sur 24 Sudeste 0 -- -- 35
2019-06-04 12:00:00 26.3 12 Sudeste 24 Sudeste 0 -- -- 37
2019-06-04 11:00:00 25.5 10 Sur 21 Sur 0 -- -- 40
2019-06-04 10:00:00 24.2 8 Sudeste 17 Sudeste 0 -- -- 47
2019-06-04 09:00:00 22 3 Sudeste 7 Sudeste 0 -- -- 54
2019-06-04 08:00:00 16.7 0 Calma 5 Noroeste 0 -- -- 71
2019-06-04 07:00:00 13.9 0 Calma 7 Norte 0 -- -- 73
2019-06-04 06:00:00 13.6 0 Calma 7 Oeste 0 -- -- 76
2019-06-04 05:00:00 14.8 0 Calma 7 Norte 0 -- -- 73
2019-06-04 04:00:00 15.1 0 Calma 8 Noroeste 0 -- -- 71
2019-06-04 03:00:00 14.8 0 Calma 0 Calma 0 -- -- 71
2019-06-04 02:00:00 15.2 0 Calma 0 Calma 0 -- -- 68
2019-06-04 01:00:00 15.4 0 Calma 3 Norte 0 -- -- 63
2019-06-04 00:00:00 16.7 0 Calma 0 Calma 0 -- -- 59
2019-06-03 23:00:00 18.5 0 Calma 3 Noroeste 0 -- -- 54
2019-06-03 22:00:00 20.3 0 Calma 10 Sur 0 -- -- 44
2019-06-03 21:00:00 22.3 6 Sur 13 Sur 0 -- -- 39
2019-06-03 20:00:00 24 8 Sur 20 Sudeste 0 -- -- 35
2019-06-03 19:00:00 25.2 10 Sur 19 Sur 0 -- -- 33
2019-06-03 18:00:00 26.3 12 Sudeste 23 Sur 0 -- -- 30
2019-06-03 17:00:00 27 12 Sur 23 Sudeste 0 -- -- 31
2019-06-03 16:00:00 27.2 10 Sur 26 Sudeste 0 -- -- 31
2019-06-03 15:00:00 27.8 10 Sur 31 Sudeste 0 -- -- 30
2019-06-03 14:00:00 28.3 13 Sudeste 23 Sudeste 0 -- -- 30
2019-06-03 13:00:00 28.5 9 Sudeste 26 Sudeste 0 -- -- 29
2019-06-03 12:00:00 27.7 5 Sur 17 Sudeste 0 -- -- 33
2019-06-03 11:00:00 25.7 5 Sudeste 13 Este 0 -- -- 35
2019-06-03 10:00:00 24.9 3 Sudeste 12 Sudeste 0 -- -- 40
2019-06-03 09:00:00 22 7 Sudeste 11 Sudeste 0 -- -- 47
2019-06-03 08:00:00 16 0 Calma 4 Norte 0 -- -- 63
2019-06-03 07:00:00 12.7 0 Calma 0 Calma 0 -- -- 67
2019-06-03 06:00:00 12.6 0 Calma 6 Noroeste 0 -- -- 66
2019-06-03 05:00:00 12.9 0 Calma 4 Noroeste 0 -- -- 66
2019-06-03 04:00:00 13.6 0 Calma 4 Noroeste 0 -- -- 66
2019-06-03 03:00:00 14.3 0 Calma 5 Noroeste 0 -- -- 66
2019-06-03 02:00:00 14.6 0 Calma 3 Oeste 0 -- -- 68
2019-06-03 01:00:00 15.6 0 Calma 4 Norte 0 -- -- 66
2019-06-03 00:00:00 16.5 0 Calma -- -- 0 -- -- 60
2019-06-02 23:00:00 18 0 Calma 4 Oeste 0 -- -- 53
2019-06-02 22:00:00 20 2 Sur 13 Sur 0 -- -- 45
2019-06-02 21:00:00 21.6 6 Sur 16 Sudeste 0 -- -- 39
2019-06-02 20:00:00 23.5 10 Sur 18 Sur 0 -- -- 34
2019-06-02 19:00:00 25 11 Sur 22 Sudeste 0 -- -- 32
2019-06-02 18:00:00 25.9 10 Sur 22 Sudeste 0 -- -- 31
2019-06-02 17:00:00 25.6 12 Sur 24 Sudeste 0 -- -- 33
2019-06-02 16:00:00 27.5 10 Sur 23 Sudeste 0 -- -- 29
2019-06-02 15:00:00 27.7 9 Sudeste 22 Sur 0 -- -- 32
2019-06-02 14:00:00 27.6 9 Sur 19 Sudeste 0 -- -- 33
2019-06-02 13:00:00 27 10 Sudeste 18 Sudeste 0 -- -- 33
2019-06-02 12:00:00 26.5 4 Sur 14 Sur 0 -- -- 35
2019-06-02 11:00:00 24.4 5 Sudeste 15 Sudeste 0 -- -- 39
2019-06-02 10:00:00 22.9 5 Sudeste 12 Sudeste 0 -- -- 43
2019-06-02 09:00:00 20.4 6 Sudeste 10 Sudeste 0 -- -- 56
2019-06-02 08:00:00 15.3 0 Calma 2 Norte 0 -- -- 80
2019-06-02 07:00:00 11.9 0 Calma 2 Norte 0 -- -- 80
2019-06-02 06:00:00 11.7 0 Calma 4 Oeste 0 -- -- 79
2019-06-02 05:00:00 13.3 0 Calma 7 Noroeste 0 -- -- 82
2019-06-02 04:00:00 14 3 Noroeste 9 Noroeste 0 -- -- 82
2019-06-02 03:00:00 14.7 0 Calma 3 Noroeste 0 -- -- 79
2019-06-02 02:00:00 14.8 0 Calma 5 Noroeste 0 -- -- 72
2019-06-02 01:00:00 15.1 0 Calma 3 Norte 0 -- -- 67
2019-06-02 00:00:00 15.9 0 Calma 0 Calma 0 -- -- 63
2019-06-01 23:00:00 17.4 0 Calma 0 Calma 0 -- -- 57
2019-06-01 22:00:00 19.9 0 Calma 9 Sudoeste 0 -- -- 51
2019-06-01 21:00:00 21.6 4 Sudoeste 12 Sur 0 -- -- 47
2019-06-01 20:00:00 22.4 7 Sur 17 Sudoeste 0 -- -- 45
2019-06-01 19:00:00 24 8 Sur 21 Sudoeste 0 -- -- 42
2019-06-01 18:00:00 25.8 12 Sudoeste 24 Sudoeste 0 -- -- 39
2019-06-01 17:00:00 26 8 Sur 21 Sur 0 -- -- 37
2019-06-01 16:00:00 26.8 9 Sur 22 Sudoeste 0 -- -- 35
2019-06-01 15:00:00 27.4 8 Sudoeste 23 Sudoeste 0 -- -- 37
2019-06-01 14:00:00 26.2 13 Sudeste 24 Sudeste 0 -- -- 37
2019-06-01 13:00:00 26.6 6 Este 13 Sudeste 0 -- -- 33
2019-06-01 12:00:00 25.8 2 Nordeste 14 Sudeste 0 -- -- 34
2019-06-01 11:00:00 24 5 Sudeste 16 Sudeste 0 -- -- 37
2019-06-01 10:00:00 22.6 3 Este 10 Sudeste 0 -- -- 43
2019-06-01 09:00:00 19.7 0 Calma 6 Norte 0 -- -- 62
2019-06-01 08:00:00 15.6 2 Norte 9 Norte 0 -- -- 74
2019-06-01 07:00:00 13.2 6 Norte 11 Noroeste 0 -- -- 77
2019-06-01 06:00:00 12.7 0 Calma 7 Noroeste 0 -- -- 75
2019-06-01 05:00:00 13.2 5 Noroeste 7 Noroeste 0 -- -- 74
2019-06-01 04:00:00 13.6 2 Noroeste 6 Noroeste 0 -- -- 70
2019-06-01 03:00:00 13.1 2 Oeste 5 Noroeste 0 -- -- 68
2019-06-01 02:00:00 14.2 3 Noroeste 6 Oeste 0 -- -- 66
2019-06-01 01:00:00 15.5 0 Calma 8 Noroeste 0 -- -- 62
2019-06-01 00:00:00 16.3 3 Noroeste 5 Noroeste 0 -- -- 62
2019-05-31 23:00:00 17 0 Calma 5 Norte 0 -- -- 57
2019-05-31 22:00:00 18.9 0 Calma 8 Sudoeste 0 -- -- 51
2019-05-31 21:00:00 20.9 4 Sudoeste 13 Sudoeste 0 -- -- 48
2019-05-31 20:00:00 22.1 6 Sur 17 Sudeste 0 -- -- 47
2019-05-31 19:00:00 23 8 Sur 17 Sur 0 -- -- 47
2019-05-31 18:00:00 23.2 7 Sudoeste 18 Sur 0 -- -- 45
2019-05-31 17:00:00 24.3 9 Sur 21 Sudoeste 0 -- -- 45
2019-05-31 16:00:00 24.4 8 Sudoeste 23 Sudeste 0 -- -- 44
2019-05-31 15:00:00 25.7 6 Sudoeste 21 Sudoeste 0 -- -- 40
2019-05-31 14:00:00 23.7 8 Sur 21 Sur 0 -- -- 42
2019-05-31 13:00:00 25.3 4 Este 19 Norte 0 -- -- 37
2019-05-31 12:00:00 25.2 3 Nordeste 19 Norte 0 -- -- 36
2019-05-31 11:00:00 25 9 Norte 18 Norte 0 -- -- 37
2019-05-31 10:00:00 22.8 2 Nordeste 10 Norte 0 -- -- 42
2019-05-31 09:00:00 19.8 3 Sudeste 6 Sudeste 0 -- -- 57
2019-05-31 08:00:00 14.2 0 Calma 0 Calma 0 -- -- 77
2019-05-31 07:00:00 11.3 0 Calma 3 Norte 0 -- -- 80
2019-05-31 06:00:00 11 0 Calma 5 Noroeste 0 -- -- 79
2019-05-31 05:00:00 12.5 2 Noroeste 4 Noroeste 0 -- -- 79
2019-05-31 04:00:00 13.4 0 Calma 11 Noroeste 0 -- -- 76
2019-05-31 03:00:00 13.9 3 Noroeste 9 Noroeste 0 -- -- 75
2019-05-31 02:00:00 13.2 0 Calma 6 Noroeste 0 -- -- 73
2019-05-31 01:00:00 14.1 0 Calma 3 Noroeste 0 -- -- 69
2019-05-31 00:00:00 15.8 0 Calma 8 Noroeste 0 -- -- 66
2019-05-30 23:00:00 16.9 4 Noroeste 7 Noroeste 0 -- -- 60
2019-05-30 22:00:00 17.9 3 Oeste 13 Oeste 0 -- -- 52
2019-05-30 21:00:00 19.4 10 Oeste 27 Oeste 0 -- -- 47
2019-05-30 20:00:00 21.5 13 Oeste 30 Oeste 0 -- -- 40
2019-05-30 19:00:00 23.9 6 Oeste 28 Norte 0 -- -- 35
2019-05-30 18:00:00 24 5 Sudoeste 26 Sudeste 0 -- -- 33
2019-05-30 17:00:00 24.2 5 Sudoeste 20 Norte 0 -- -- 37
2019-05-30 16:00:00 23.7 5 Nordeste 17 Norte 0 -- -- 41
2019-05-30 15:00:00 23.2 4 Nordeste 19 Norte 0 -- -- 41
2019-05-30 14:00:00 23.5 8 Norte 18 Noroeste 0 -- -- 37
2019-05-30 13:00:00 22.6 9 Noroeste 19 Norte 0 -- -- 39
2019-05-30 12:00:00 23.4 3 Norte 16 Norte 0 -- -- 37
2019-05-30 11:00:00 22.4 2 Sudeste 14 Norte 0 -- -- 40
2019-05-30 10:00:00 20.8 0 Calma 13 Norte 0 -- -- 44
2019-05-30 09:00:00 18.9 5 Noroeste 12 Noroeste 0 -- -- 61
2019-05-30 08:00:00 15.2 4 Noroeste 9 Noroeste 0 -- -- 85
2019-05-30 07:00:00 11.4 0 Calma 5 Noroeste 0 -- -- 84
2019-05-30 06:00:00 11.2 0 Calma 4 Noroeste 0 -- -- 82
2019-05-30 05:00:00 12.9 4 Norte 8 Norte 0 -- -- 82
2019-05-30 04:00:00 13.2 3 Norte 7 Norte 0 -- -- 82
2019-05-30 03:00:00 12.1 0 Calma 5 Norte 0 -- -- 80
2019-05-30 02:00:00 12.4 0 Calma 2 Noroeste 0 -- -- 78
2019-05-30 01:00:00 12.8 0 Calma 3 Norte 0 -- -- 75
2019-05-30 00:00:00 13.7 0 Calma 6 Norte 0 -- -- 71
2019-05-29 23:00:00 15 0 Calma 3 Norte 0 -- -- 67
2019-05-29 22:00:00 17.1 0 Calma 13 Sudoeste 0 -- -- 61
2019-05-29 21:00:00 17.5 5 Sudoeste 18 Sudoeste 0 -- -- 56
2019-05-29 20:00:00 18.8 9 Sudoeste 21 Sudoeste 0 -- -- 52
2019-05-29 19:00:00 20.5 12 Sudoeste 23 Sudoeste 0 -- -- 49
2019-05-29 18:00:00 20.3 10 Sudoeste 24 Sudoeste 0 -- -- 46
2019-05-29 17:00:00 20 11 Sur 23 Sudoeste 0 -- -- 45
2019-05-29 16:00:00 21.6 11 Sudoeste 25 Sudeste 0 -- -- 44
2019-05-29 15:00:00 20.2 9 Sudoeste 19 Sudoeste 0 -- -- 49
2019-05-29 14:00:00 19.6 4 Sudoeste 11 Sudoeste 0 -- -- 55
2019-05-29 13:00:00 18.8 0 Calma 13 Sudeste 0 -- -- 57
2019-05-29 12:00:00 18 5 Este 12 Sudeste 0 -- -- 59
2019-05-29 11:00:00 18.5 5 Sudeste 12 Sudeste 0 -- -- 58
2019-05-29 10:00:00 18.2 6 Sudeste 15 Sudeste 0 -- -- 67
2019-05-29 09:00:00 15.8 2 Este 10 Nordeste 0 -- -- 82
2019-05-29 08:00:00 15.5 0 Calma 6 Este 0 -- -- 84
2019-05-29 07:00:00 15.5 2 Norte 6 Sudeste 0.3 -- -- 83
2019-05-29 06:00:00 15.7 0 Calma 8 Noroeste 0.1 -- -- 78
2019-05-29 05:00:00 15.7 6 Noroeste 10 Noroeste 0 -- -- 77
2019-05-29 04:00:00 15.1 0 Calma 5 Norte 0 -- -- 77
2019-05-29 03:00:00 15.6 3 Norte 10 Noroeste 0 -- -- 77
2019-05-29 02:00:00 14.4 0 Calma 7 Noroeste 0 -- -- 76
2019-05-29 01:00:00 15.7 3 Noroeste 8 Noroeste 0 -- -- 72
2019-05-29 00:00:00 16.1 0 Calma 0 Calma 0 -- -- 71
2019-05-28 23:00:00 16.7 0 Calma 13 Norte 0 -- -- 68
2019-05-28 22:00:00 16.6 4 Nordeste 19 Este 0 -- -- 68
2019-05-28 21:00:00 16.9 6 Este 22 Este 0 -- -- 68
2019-05-28 20:00:00 17.5 13 Este 27 Este 0 -- -- 68
2019-05-28 19:00:00 19.7 10 Nordeste 29 Norte 0 -- -- 61
2019-05-28 18:00:00 21.8 4 Este 18 Nordeste 0 -- -- 56
2019-05-28 17:00:00 21 7 Nordeste 20 Nordeste 0 -- -- 60
2019-05-28 16:00:00 21.8 6 Este 22 Este 0 -- -- 60
2019-05-28 15:00:00 24.1 6 Nordeste 29 Oeste 0 -- -- 51
2019-05-28 14:00:00 24.4 6 Oeste 19 Sudeste 0 -- -- 48
2019-05-28 13:00:00 23.1 5 Sur 19 Sudeste 0 -- -- 55
2019-05-28 12:00:00 23.3 6 Sudeste 18 Sur 0 -- -- 56
2019-05-28 11:00:00 22 7 Sudoeste 16 Oeste 0 -- -- 64
2019-05-28 10:00:00 20.1 9 Sudoeste 18 Sudoeste 0 -- -- 73
2019-05-28 09:00:00 18.2 4 Sur 9 Sur 0 -- -- 89
2019-05-28 08:00:00 17.7 0 Calma 4 Oeste 0 -- -- 91
2019-05-28 07:00:00 16.6 0 Calma 0 Calma 0 -- -- 90
2019-05-28 06:00:00 16.6 0 Calma 2 Norte 0 -- -- 90
2019-05-28 05:00:00 15.3 0 Calma 4 Norte 0 -- -- 88
2019-05-28 04:00:00 17.1 0 Calma 8 Sur 0 -- -- 88
2019-05-28 03:00:00 16.4 0 Calma 5 Sudoeste 0 -- -- 86
2019-05-28 02:00:00 16.8 2 Oeste 7 Sudoeste 0 -- -- 86
2019-05-28 01:00:00 17.6 3 Sudoeste 9 Sudeste 0 -- -- 86
2019-05-28 00:00:00 18.5 5 Sur 11 Sudoeste 0 -- -- 82
2019-05-27 23:00:00 17 0 Calma 3 Oeste 0 -- -- 64
2019-05-27 22:00:00 18.3 0 Calma 4 Sudoeste 0 -- -- 58
2019-05-27 21:00:00 20.3 3 Oeste 22 Sudoeste 0 -- -- 52
2019-05-27 20:00:00 21.2 11 Sudoeste 27 Sudoeste 0 -- -- 53
2019-05-27 19:00:00 22.7 17 Sudoeste 31 Sudoeste 0 -- -- 49
2019-05-27 18:00:00 23.6 14 Sudoeste 29 Sudoeste 0 -- -- 47
2019-05-27 17:00:00 23.8 13 Sur 30 Sur 0 -- -- 46
2019-05-27 16:00:00 23.1 14 Sur 32 Sudoeste 0 -- -- 46
2019-05-27 15:00:00 23 20 Sudeste 32 Sudeste 0 -- -- 47
2019-05-27 14:00:00 23.6 11 Sudeste 21 Sudeste 0 -- -- 40
2019-05-27 13:00:00 23.9 9 Sur 16 Sur 0 -- -- 40
2019-05-27 12:00:00 24.5 2 Este 9 Sudoeste 0 -- -- 36
2019-05-27 11:00:00 23.8 2 Norte 14 Norte 0 -- -- 37
2019-05-27 10:00:00 23.6 6 Norte 17 Noroeste 0 -- -- 41
2019-05-27 09:00:00 21.3 9 Noroeste 19 Noroeste 0 -- -- 44
2019-05-27 08:00:00 18.8 7 Noroeste 15 Noroeste 0 -- -- 51
2019-05-27 07:00:00 16.7 7 Noroeste 19 Noroeste 0 -- -- 55
2019-05-27 06:00:00 16.3 10 Noroeste 16 Norte 0 -- -- 57
2019-05-27 05:00:00 17 8 Noroeste 20 Noroeste 0 -- -- 56
2019-05-27 04:00:00 17.1 10 Noroeste 24 Noroeste 0 -- -- 56
2019-05-27 03:00:00 16.7 9 Noroeste 15 Oeste 0 -- -- 58
2019-05-27 02:00:00 17.4 9 Oeste 15 Sudoeste 0 -- -- 59
2019-05-27 01:00:00 14.5 2 Oeste 8 Sudoeste 0 -- -- 69
2019-05-27 00:00:00 14 2 Norte 9 Noroeste 0 -- -- 67
2019-05-26 23:00:00 15 0 Calma 3 Norte 0 -- -- 63
2019-05-26 22:00:00 16.6 2 Oeste 6 Norte 0 -- -- 55
2019-05-26 21:00:00 19.3 3 Norte 19 Norte 0 -- -- 47
2019-05-26 20:00:00 20.8 3 Nordeste 16 Norte 0 -- -- 44
2019-05-26 19:00:00 21.2 3 Nordeste 18 Norte 0 -- -- 43
2019-05-26 18:00:00 21.7 8 Nordeste 25 Norte 0 -- -- 40
2019-05-26 17:00:00 22.9 8 Noroeste 20 Norte 0 -- -- 41
2019-05-26 16:00:00 20.6 9 Norte 23 Nordeste 0 -- -- 46
2019-05-26 15:00:00 20.9 9 Nordeste 28 Norte 0 -- -- 44
2019-05-26 14:00:00 22.1 5 Este 31 Norte 0 -- -- 41
2019-05-26 13:00:00 23 10 Norte 31 Norte 0 -- -- 40
2019-05-26 12:00:00 22 7 Nordeste 40 Norte 0 -- -- 40
2019-05-26 11:00:00 22.6 4 Nordeste 29 Norte 0 -- -- 41
2019-05-26 10:00:00 21.9 15 Norte 27 Norte 0 -- -- 45
2019-05-26 09:00:00 19.9 11 Norte 20 Norte 0 -- -- 58
2019-05-26 08:00:00 17 8 Noroeste 17 Noroeste 0 -- -- 71
2019-05-26 07:00:00 14.8 9 Noroeste 15 Noroeste 0 -- -- 75
2019-05-26 06:00:00 15 5 Noroeste 10 Noroeste 0 -- -- 75
2019-05-26 05:00:00 16 6 Noroeste 13 Oeste 0 -- -- 75
2019-05-26 04:00:00 15.7 4 Norte 14 Norte 0 -- -- 74
2019-05-26 03:00:00 16 5 Noroeste 12 Noroeste 0 -- -- 79
2019-05-26 02:00:00 15.6 0 Calma 8 Noroeste 0 -- -- 79
2019-05-26 01:00:00 16.8 4 Norte 11 Norte 0 -- -- 77
2019-05-26 00:00:00 17.1 5 Norte 9 Norte 0 -- -- 77
2019-05-25 23:00:00 17 5 Norte 10 Norte 0 -- -- 75
2019-05-25 22:00:00 17.2 3 Norte 16 Norte 0 -- -- 73
2019-05-25 21:00:00 17.5 6 Nordeste 22 Norte 0 -- -- 70
2019-05-25 20:00:00 18.4 11 Norte 26 Nordeste 0 -- -- 66
2019-05-25 19:00:00 19.5 9 Norte 24 Norte 0 -- -- 64
2019-05-25 18:00:00 19.5 10 Nordeste 33 Norte 0 -- -- 63
2019-05-25 17:00:00 19.5 8 Nordeste 29 Norte 0 -- -- 64
2019-05-25 16:00:00 19.1 10 Norte 24 Norte 0 -- -- 71
2019-05-25 15:00:00 19.1 12 Norte 27 Norte 0 -- -- 71
2019-05-25 14:00:00 19.6 17 Norte 28 Norte 0 -- -- 67
2019-05-25 13:00:00 19.5 12 Norte 22 Norte 0 -- -- 68
2019-05-25 12:00:00 17.5 3 Nordeste 13 Este 0 -- -- 75
2019-05-25 11:00:00 16.7 4 Nordeste 14 Norte 0 -- -- 82
2019-05-25 10:00:00 16.4 3 Nordeste 12 Nordeste 0 -- -- 86
2019-05-25 09:00:00 16.2 4 Norte 14 Norte 0 -- -- 88
2019-05-25 08:00:00 15.4 0 Calma 9 Nordeste 0 -- -- 90
2019-05-25 07:00:00 15.4 3 Norte 10 Norte 0 -- -- 90
2019-05-25 06:00:00 15.3 0 Calma 10 Norte 0 -- -- 90
2019-05-25 05:00:00 15.4 4 Norte 11 Norte 0 -- -- 90
2019-05-25 04:00:00 15.2 8 Norte 12 Noroeste 0 -- -- 90
2019-05-25 03:00:00 15 6 Norte 12 Noroeste 0 -- -- 90
2019-05-25 02:00:00 14.8 8 Noroeste 12 Noroeste 0 -- -- 89
2019-05-25 01:00:00 14.9 3 Norte 7 Norte 0 -- -- 88
2019-05-25 00:00:00 14.7 5 Norte 10 Norte 0 -- -- 88
2019-05-24 23:00:00 15 4 Norte 9 Noroeste 0 -- -- 86
2019-05-24 22:00:00 15.2 4 Norte 8 Norte 0 -- -- 86
2019-05-24 21:00:00 16.2 4 Norte 6 Noroeste 0 -- -- 82
2019-05-24 20:00:00 16 0 Calma 8 Norte 0 -- -- 82
2019-05-24 19:00:00 16.6 0 Calma 10 Norte 0.4 -- -- 82
2019-05-24 18:00:00 16.5 6 Norte 10 Norte 0.8 -- -- 80
2019-05-24 17:00:00 16.9 6 Norte 12 Norte 0.3 -- -- 76
2019-05-24 16:00:00 17.5 6 Norte 11 Norte 1 -- -- 77
2019-05-24 15:00:00 18.9 7 Oeste 12 Sudoeste 0.4 -- -- 68
2019-05-24 14:00:00 20.1 4 Sudeste 12 Este 0.2 -- -- 47
2019-05-24 13:00:00 22.9 2 Nordeste 10 Norte 0 -- -- 35
2019-05-24 12:00:00 22.8 0 Calma 8 Norte 0 -- -- 34
2019-05-24 11:00:00 20.8 0 Calma 4 Nordeste 0 -- -- 46
2019-05-24 10:00:00 20.1 3 Este 7 Sudeste 0 -- -- 45
2019-05-24 09:00:00 19.1 0 Calma 6 Noroeste 0 -- -- 58
2019-05-24 08:00:00 16.6 3 Norte 9 Norte 0 -- -- 67
2019-05-24 07:00:00 15.5 7 Norte 17 Noroeste 0 -- -- 71
2019-05-24 06:00:00 15.7 2 Noroeste 7 Noroeste 0 -- -- 68
2019-05-24 05:00:00 14.3 0 Calma 2 Noroeste 0 -- -- 66
2019-05-24 04:00:00 14.1 0 Calma 5 Norte 0 -- -- 63
2019-05-24 03:00:00 14.1 0 Calma 6 Norte 0 -- -- 63
2019-05-24 02:00:00 15.3 0 Calma 5 Norte 0 -- -- 62
2019-05-24 01:00:00 16 0 Calma 5 Noroeste 0 -- -- 63
2019-05-24 00:00:00 16.7 0 Calma 2 Norte 0 -- -- 63
2019-05-23 23:00:00 17.6 0 Calma 4 Sur 0 -- -- 60
2019-05-23 22:00:00 18.6 0 Calma 8 Sur 0 -- -- 56
2019-05-23 21:00:00 20.2 4 Sur 12 Sudoeste 0 -- -- 49
2019-05-23 20:00:00 21.9 6 Sur 17 Sudoeste 0 -- -- 35
2019-05-23 19:00:00 22.5 9 Sur 23 Sudoeste 0 -- -- 32
2019-05-23 18:00:00 24.6 11 Sudoeste 23 Sudoeste 0 -- -- 27
2019-05-23 17:00:00 26.3 11 Sudoeste 23 Sudoeste 0 -- -- 25
2019-05-23 16:00:00 26.4 11 Sur 27 Sudoeste 0 -- -- 26
2019-05-23 15:00:00 27.2 10 Sudoeste 26 Oeste 0 -- -- 26
2019-05-23 14:00:00 26.4 11 Sur 26 Sudeste 0 -- -- 28
2019-05-23 13:00:00 25.5 11 Sur 23 Sudoeste 0 -- -- 27
2019-05-23 12:00:00 25.5 9 Sudoeste 20 Sur 0 -- -- 28
2019-05-23 11:00:00 24.6 9 Sur 20 Sudoeste 0 -- -- 31
2019-05-23 10:00:00 23.7 7 Sudoeste 15 Oeste 0 -- -- 32
2019-05-23 09:00:00 21.2 6 Sudoeste 12 Sudoeste 0 -- -- 37
2019-05-23 08:00:00 13.4 0 Calma 4 Norte 0 -- -- 83
2019-05-23 07:00:00 10.4 0 Calma 2 Oeste 0 -- -- 85
2019-05-23 06:00:00 10.9 0 Calma 5 Norte 0 -- -- 85
2019-05-23 05:00:00 11.1 0 Calma 4 Oeste 0 -- -- 85
2019-05-23 04:00:00 12 0 Calma 3 Norte 0 -- -- 84
2019-05-23 03:00:00 12.8 0 Calma 5 Nordeste 0 -- -- 82
2019-05-23 02:00:00 13.6 0 Calma 4 Oeste 0 -- -- 78
2019-05-23 01:00:00 14.6 0 Calma 4 Norte 0 -- -- 74
2019-05-23 00:00:00 16.3 0 Calma 9 Sudoeste 0 -- -- 70
2019-05-22 23:00:00 17.6 3 Sudoeste 11 Sudeste 0 -- -- 66
2019-05-22 22:00:00 18.4 4 Sur 13 Sudoeste 0 -- -- 54
2019-05-22 21:00:00 20.2 6 Sudoeste 14 Sudoeste 0 -- -- 37
2019-05-22 20:00:00 22.1 7 Sudoeste 20 Sur 0 -- -- 34
2019-05-22 19:00:00 22.9 9 Sur 20 Sudoeste 0 -- -- 34
2019-05-22 18:00:00 24.2 10 Sudoeste 23 Sudoeste 0 -- -- 32
2019-05-22 17:00:00 24.7 9 Sur 24 Sudoeste 0 -- -- 31
2019-05-22 16:00:00 24.4 12 Sur 25 Sudoeste 0 -- -- 31
2019-05-22 15:00:00 25.3 10 Sur 25 Sudoeste 0 -- -- 32
2019-05-22 14:00:00 25.1 8 Sur 23 Sudoeste 0 -- -- 33
2019-05-22 13:00:00 24.9 4 Sudeste 13 Sudeste 0 -- -- 32
2019-05-22 12:00:00 24.4 0 Calma 12 Sudeste 0 -- -- 35
2019-05-22 11:00:00 22.3 3 Sur 10 Este 0 -- -- 39
2019-05-22 10:00:00 20.7 0 Calma 6 Este 0 -- -- 50
2019-05-22 09:00:00 17.7 2 Noroeste 8 Norte 0 -- -- 79
2019-05-22 08:00:00 14.5 4 Norte 8 Noroeste 0 -- -- 85
2019-05-22 07:00:00 12.4 3 Noroeste 7 Norte 0 -- -- 87
2019-05-22 06:00:00 12.2 5 Noroeste 8 Noroeste 0 -- -- 87
2019-05-22 05:00:00 12 0 Calma 5 Norte 0 -- -- 86
2019-05-22 04:00:00 12.2 0 Calma 4 Norte 0 -- -- 85
2019-05-22 03:00:00 12.9 0 Calma 6 Norte 0 -- -- 83
2019-05-22 02:00:00 13.7 0 Calma 5 Norte 0 -- -- 79
2019-05-22 01:00:00 14.4 0 Calma 3 Oeste 0 -- -- 77
2019-05-22 00:00:00 16.1 2 Oeste 6 Oeste 0 -- -- 74
2019-05-21 23:00:00 17.6 0 Calma 7 Sur 0 -- -- 70
2019-05-21 22:00:00 18.1 4 Sur 11 Sur 0 -- -- 68
2019-05-21 21:00:00 18.8 5 Sur 16 Sur 0 -- -- 61
2019-05-21 20:00:00 20.2 8 Sur 17 Sudeste 0 -- -- 47
2019-05-21 19:00:00 21.6 5 Sur 17 Sudeste 0 -- -- 40
2019-05-21 18:00:00 22.7 3 Sudeste 8 Sudoeste 0 -- -- 31
2019-05-21 17:00:00 23.2 4 Oeste 13 Sudoeste 0 -- -- 34
2019-05-21 16:00:00 21.2 8 Sudoeste 21 Sudoeste 0 -- -- 39
2019-05-21 15:00:00 21.3 10 Sudoeste 23 Sudoeste 0 -- -- 39
2019-05-21 14:00:00 23.7 14 Sudoeste 25 Sudoeste 0 -- -- 32
2019-05-21 13:00:00 24 12 Sudeste 23 Este 0 -- -- 32
2019-05-21 12:00:00 23.5 4 Sudoeste 16 Sudeste 0 -- -- 33
2019-05-21 11:00:00 22.6 8 Sudeste 15 Sudeste 0 -- -- 36
2019-05-21 10:00:00 21 3 Sudeste 9 Sudeste 0 -- -- 43
2019-05-21 09:00:00 18.4 0 Calma 6 Sur 0 -- -- 56
2019-05-21 08:00:00 13.4 0 Calma 6 Norte 0 -- -- 80
2019-05-21 07:00:00 10.8 0 Calma 6 Noroeste 0 -- -- 79
2019-05-21 06:00:00 10.7 0 Calma 9 Noroeste 0 -- -- 79
2019-05-21 05:00:00 11.3 0 Calma 5 Oeste 0 -- -- 79
2019-05-21 04:00:00 10.7 0 Calma -- -- 0 -- -- 78
2019-05-21 03:00:00 10.5 0 Calma 7 Norte 0 -- -- 76
2019-05-21 02:00:00 12.3 0 Calma 10 Norte 0 -- -- 74
2019-05-21 01:00:00 13.2 4 Norte 10 Noroeste 0 -- -- 72
2019-05-21 00:00:00 14.1 2 Norte 8 Norte 0 -- -- 69